sensor_id;sensor_type;location;lat;lon;timestamp;temperature;humidity
19538;DHT22;9914;51.008;4.300;2024-01-30T00:01:50;11.90;99.90
19538;DHT22;9914;51.008;4.300;2024-01-30T00:04:15;11.90;99.90
19538;DHT22;9914;51.008;4.300;2024-01-30T00:06:42;11.90;99.90
19538;DHT22;9914;51.008;4.300;2024-01-30T00:09:08;12.00;99.90
19538;DHT22;9914;51.008;4.300;2024-01-30T00:11:34;12.00;99.90
19538;DHT22;9914;51.008;4.300;2024-01-30T00:14:00;12.10;99.90
19538;DHT22;9914;51.008;4.300;2024-01-30T00:16:26;12.10;99.90
19538;DHT22;9914;51.008;4.300;2024-01-30T00:18:52;12.10;99.90
19538;DHT22;9914;51.008;4.300;2024-01-30T00:21:18;12.00;99.90
19538;DHT22;9914;51.008;4.300;2024-01-30T00:23:44;12.00;99.90
19538;DHT22;9914;51.008;4.300;2024-01-30T00:26:10;12.00;99.90
19538;DHT22;9914;51.008;4.300;2024-01-30T00:28:37;12.00;99.90
19538;DHT22;9914;51.008;4.300;2024-01-30T00:31:03;12.00;99.90
19538;DHT22;9914;51.008;4.300;2024-01-30T00:33:29;12.00;99.90
19538;DHT22;9914;51.008;4.300;2024-01-30T00:35:54;12.00;99.90
19538;DHT22;9914;51.008;4.300;2024-01-30T00:38:20;12.00;99.90
19538;DHT22;9914;51.008;4.300;2024-01-30T00:40:45;12.00;99.90
19538;DHT22;9914;51.008;4.300;2024-01-30T00:43:11;12.00;99.90
19538;DHT22;9914;51.008;4.300;2024-01-30T00:45:37;12.00;99.90
19538;DHT22;9914;51.008;4.300;2024-01-30T00:48:02;12.00;99.90
19538;DHT22;9914;51.008;4.300;2024-01-30T00:50:28;12.00;99.90
19538;DHT22;9914;51.008;4.300;2024-01-30T00:52:54;12.00;99.90
19538;DHT22;9914;51.008;4.300;2024-01-30T00:55:19;12.00;99.90
19538;DHT22;9914;51.008;4.300;2024-01-30T00:57:45;12.00;99.90
19538;DHT22;9914;51.008;4.300;2024-01-30T01:00:11;12.00;99.90
19538;DHT22;9914;51.008;4.300;2024-01-30T01:02:38;12.00;99.90
19538;DHT22;9914;51.008;4.300;2024-01-30T01:05:05;12.00;99.90
19538;DHT22;9914;51.008;4.300;2024-01-30T01:07:31;11.90;99.90
19538;DHT22;9914;51.008;4.300;2024-01-30T01:09:56;11.90;99.90
19538;DHT22;9914;51.008;4.300;2024-01-30T01:12:22;11.90;99.90
19538;DHT22;9914;51.008;4.300;2024-01-30T01:14:48;11.90;99.90
19538;DHT22;9914;51.008;4.300;2024-01-30T01:17:13;11.90;99.90
19538;DHT22;9914;51.008;4.300;2024-01-30T01:19:39;11.90;99.90
19538;DHT22;9914;51.008;4.300;2024-01-30T01:22:05;11.90;99.90
19538;DHT22;9914;51.008;4.300;2024-01-30T01:24:33;11.90;99.90
19538;DHT22;9914;51.008;4.300;2024-01-30T01:26:59;12.00;99.90
19538;DHT22;9914;51.008;4.300;2024-01-30T01:29:25;11.90;99.90
19538;DHT22;9914;51.008;4.300;2024-01-30T01:31:57;11.90;99.90
19538;DHT22;9914;51.008;4.300;2024-01-30T01:34:23;11.90;99.90
19538;DHT22;9914;51.008;4.300;2024-01-30T01:36:49;11.90;99.90
19538;DHT22;9914;51.008;4.300;2024-01-30T01:39:16;11.90;99.90
19538;DHT22;9914;51.008;4.300;2024-01-30T01:41:42;11.80;99.90
19538;DHT22;9914;51.008;4.300;2024-01-30T01:44:08;11.70;99.90
19538;DHT22;9914;51.008;4.300;2024-01-30T01:46:34;11.80;99.90
19538;DHT22;9914;51.008;4.300;2024-01-30T01:49:04;11.80;99.90
19538;DHT22;9914;51.008;4.300;2024-01-30T01:51:33;11.70;99.90
19538;DHT22;9914;51.008;4.300;2024-01-30T01:54:00;11.70;99.90
19538;DHT22;9914;51.008;4.300;2024-01-30T01:56:27;11.80;99.90
19538;DHT22;9914;51.008;4.300;2024-01-30T01:58:55;11.80;99.90
19538;DHT22;9914;51.008;4.300;2024-01-30T02:01:21;11.80;99.90
19538;DHT22;9914;51.008;4.300;2024-01-30T02:03:48;11.70;99.90
19538;DHT22;9914;51.008;4.300;2024-01-30T02:06:14;11.70;99.90
19538;DHT22;9914;51.008;4.300;2024-01-30T02:08:41;11.70;99.90
19538;DHT22;9914;51.008;4.300;2024-01-30T02:11:07;11.70;99.90
19538;DHT22;9914;51.008;4.300;2024-01-30T02:13:33;11.70;99.90
19538;DHT22;9914;51.008;4.300;2024-01-30T02:16:00;11.70;99.90
19538;DHT22;9914;51.008;4.300;2024-01-30T02:18:26;11.70;99.90
19538;DHT22;9914;51.008;4.300;2024-01-30T02:20:53;11.70;99.90
19538;DHT22;9914;51.008;4.300;2024-01-30T02:23:20;11.70;99.90
19538;DHT22;9914;51.008;4.300;2024-01-30T02:25:45;11.70;99.90
19538;DHT22;9914;51.008;4.300;2024-01-30T02:28:12;11.70;99.90
19538;DHT22;9914;51.008;4.300;2024-01-30T02:30:39;11.80;99.90
19538;DHT22;9914;51.008;4.300;2024-01-30T02:33:05;11.80;99.90
19538;DHT22;9914;51.008;4.300;2024-01-30T02:35:31;11.80;99.90
19538;DHT22;9914;51.008;4.300;2024-01-30T02:37:56;11.90;99.90
19538;DHT22;9914;51.008;4.300;2024-01-30T02:40:22;11.80;99.90
19538;DHT22;9914;51.008;4.300;2024-01-30T02:42:48;11.90;99.90
19538;DHT22;9914;51.008;4.300;2024-01-30T02:45:13;11.90;99.90
19538;DHT22;9914;51.008;4.300;2024-01-30T02:47:40;11.90;99.90
19538;DHT22;9914;51.008;4.300;2024-01-30T02:50:06;12.00;99.90
19538;DHT22;9914;51.008;4.300;2024-01-30T02:52:32;12.00;99.90
19538;DHT22;9914;51.008;4.300;2024-01-30T02:54:57;12.00;99.90
19538;DHT22;9914;51.008;4.300;2024-01-30T02:57:23;12.10;99.90
19538;DHT22;9914;51.008;4.300;2024-01-30T02:59:48;12.10;99.90
19538;DHT22;9914;51.008;4.300;2024-01-30T03:02:14;12.10;99.90
19538;DHT22;9914;51.008;4.300;2024-01-30T03:04:43;12.00;99.90
19538;DHT22;9914;51.008;4.300;2024-01-30T03:07:08;12.10;99.90
19538;DHT22;9914;51.008;4.300;2024-01-30T03:09:34;12.10;99.90
19538;DHT22;9914;51.008;4.300;2024-01-30T03:12:00;12.10;99.90
19538;DHT22;9914;51.008;4.300;2024-01-30T03:14:26;12.20;99.90
19538;DHT22;9914;51.008;4.300;2024-01-30T03:16:52;12.10;99.90
19538;DHT22;9914;51.008;4.300;2024-01-30T03:19:17;12.20;99.90
19538;DHT22;9914;51.008;4.300;2024-01-30T03:21:44;12.20;99.90
19538;DHT22;9914;51.008;4.300;2024-01-30T03:24:09;12.10;99.90
19538;DHT22;9914;51.008;4.300;2024-01-30T03:26:35;12.20;99.90
19538;DHT22;9914;51.008;4.300;2024-01-30T03:29:01;12.10;99.90
19538;DHT22;9914;51.008;4.300;2024-01-30T03:31:27;12.10;99.90
19538;DHT22;9914;51.008;4.300;2024-01-30T03:33:52;12.20;99.90
19538;DHT22;9914;51.008;4.300;2024-01-30T03:36:18;12.10;99.90
19538;DHT22;9914;51.008;4.300;2024-01-30T03:38:44;12.20;99.90
19538;DHT22;9914;51.008;4.300;2024-01-30T03:41:09;12.20;99.90
19538;DHT22;9914;51.008;4.300;2024-01-30T03:43:36;12.10;99.90
19538;DHT22;9914;51.008;4.300;2024-01-30T03:46:02;12.10;99.90
19538;DHT22;9914;51.008;4.300;2024-01-30T03:48:29;12.20;99.90
19538;DHT22;9914;51.008;4.300;2024-01-30T03:50:54;12.10;99.90
19538;DHT22;9914;51.008;4.300;2024-01-30T03:53:20;12.10;99.90
19538;DHT22;9914;51.008;4.300;2024-01-30T03:55:46;12.10;99.90
19538;DHT22;9914;51.008;4.300;2024-01-30T03:58:12;12.10;99.90
19538;DHT22;9914;51.008;4.300;2024-01-30T04:00:37;12.10;99.90
19538;DHT22;9914;51.008;4.300;2024-01-30T04:03:03;12.10;99.90
19538;DHT22;9914;51.008;4.300;2024-01-30T04:05:29;12.20;99.90
19538;DHT22;9914;51.008;4.300;2024-01-30T04:07:54;12.20;99.90
19538;DHT22;9914;51.008;4.300;2024-01-30T04:10:20;12.10;99.90
19538;DHT22;9914;51.008;4.300;2024-01-30T04:12:46;12.10;99.90
19538;DHT22;9914;51.008;4.300;2024-01-30T04:15:11;12.10;99.90
19538;DHT22;9914;51.008;4.300;2024-01-30T04:17:39;12.00;99.90
19538;DHT22;9914;51.008;4.300;2024-01-30T04:20:05;11.90;99.90
19538;DHT22;9914;51.008;4.300;2024-01-30T04:22:31;11.90;99.90
19538;DHT22;9914;51.008;4.300;2024-01-30T04:24:57;11.80;99.90
19538;DHT22;9914;51.008;4.300;2024-01-30T04:27:23;11.80;99.90
19538;DHT22;9914;51.008;4.300;2024-01-30T04:29:48;11.80;99.90
19538;DHT22;9914;51.008;4.300;2024-01-30T04:32:14;11.80;99.90
19538;DHT22;9914;51.008;4.300;2024-01-30T04:34:40;11.80;99.90
19538;DHT22;9914;51.008;4.300;2024-01-30T04:37:06;11.80;99.90
19538;DHT22;9914;51.008;4.300;2024-01-30T04:39:33;11.80;99.90
19538;DHT22;9914;51.008;4.300;2024-01-30T04:41:59;11.80;99.90
19538;DHT22;9914;51.008;4.300;2024-01-30T04:44:25;11.80;99.90
19538;DHT22;9914;51.008;4.300;2024-01-30T04:46:50;11.80;99.90
19538;DHT22;9914;51.008;4.300;2024-01-30T04:49:16;11.90;99.90
19538;DHT22;9914;51.008;4.300;2024-01-30T04:51:41;11.90;99.90
19538;DHT22;9914;51.008;4.300;2024-01-30T04:54:07;11.90;99.90
19538;DHT22;9914;51.008;4.300;2024-01-30T04:56:33;11.90;99.90
19538;DHT22;9914;51.008;4.300;2024-01-30T04:58:59;11.90;99.90
19538;DHT22;9914;51.008;4.300;2024-01-30T05:01:25;11.90;99.90
19538;DHT22;9914;51.008;4.300;2024-01-30T05:03:51;11.90;99.90
19538;DHT22;9914;51.008;4.300;2024-01-30T05:06:26;11.90;99.90
19538;DHT22;9914;51.008;4.300;2024-01-30T05:08:52;11.90;99.90
19538;DHT22;9914;51.008;4.300;2024-01-30T05:11:18;12.00;99.90
19538;DHT22;9914;51.008;4.300;2024-01-30T05:13:44;11.90;99.90
19538;DHT22;9914;51.008;4.300;2024-01-30T05:16:09;12.00;99.90
19538;DHT22;9914;51.008;4.300;2024-01-30T05:18:35;11.90;99.90
19538;DHT22;9914;51.008;4.300;2024-01-30T05:21:02;11.90;99.90
19538;DHT22;9914;51.008;4.300;2024-01-30T05:23:28;11.90;99.90
19538;DHT22;9914;51.008;4.300;2024-01-30T05:25:53;11.90;99.90
19538;DHT22;9914;51.008;4.300;2024-01-30T05:28:19;11.80;99.90
19538;DHT22;9914;51.008;4.300;2024-01-30T05:30:44;11.70;99.90
19538;DHT22;9914;51.008;4.300;2024-01-30T05:33:10;11.70;99.90
19538;DHT22;9914;51.008;4.300;2024-01-30T05:35:37;11.70;99.90
19538;DHT22;9914;51.008;4.300;2024-01-30T05:38:03;11.80;99.90
19538;DHT22;9914;51.008;4.300;2024-01-30T05:40:30;11.70;99.90
19538;DHT22;9914;51.008;4.300;2024-01-30T05:42:56;11.70;99.90
19538;DHT22;9914;51.008;4.300;2024-01-30T05:45:21;11.70;99.90
19538;DHT22;9914;51.008;4.300;2024-01-30T05:47:48;11.70;99.90
19538;DHT22;9914;51.008;4.300;2024-01-30T05:50:14;11.70;99.90
19538;DHT22;9914;51.008;4.300;2024-01-30T05:52:40;11.80;99.90
19538;DHT22;9914;51.008;4.300;2024-01-30T05:55:06;11.90;99.90
19538;DHT22;9914;51.008;4.300;2024-01-30T05:57:32;11.90;99.90
19538;DHT22;9914;51.008;4.300;2024-01-30T05:59:58;11.80;99.90
19538;DHT22;9914;51.008;4.300;2024-01-30T06:02:23;11.70;99.90
19538;DHT22;9914;51.008;4.300;2024-01-30T06:04:49;11.70;99.90
19538;DHT22;9914;51.008;4.300;2024-01-30T06:07:14;11.70;99.90
19538;DHT22;9914;51.008;4.300;2024-01-30T06:09:40;11.70;99.90
19538;DHT22;9914;51.008;4.300;2024-01-30T06:12:06;11.70;99.90
19538;DHT22;9914;51.008;4.300;2024-01-30T06:14:32;11.70;99.90
19538;DHT22;9914;51.008;4.300;2024-01-30T06:16:59;11.70;99.90
19538;DHT22;9914;51.008;4.300;2024-01-30T06:19:24;11.70;99.90
19538;DHT22;9914;51.008;4.300;2024-01-30T06:21:50;11.70;99.90
19538;DHT22;9914;51.008;4.300;2024-01-30T06:24:16;11.70;99.90
19538;DHT22;9914;51.008;4.300;2024-01-30T06:26:42;11.70;99.90
19538;DHT22;9914;51.008;4.300;2024-01-30T06:29:08;11.60;99.90
19538;DHT22;9914;51.008;4.300;2024-01-30T06:31:40;11.70;99.90
19538;DHT22;9914;51.008;4.300;2024-01-30T06:34:05;11.60;99.90
19538;DHT22;9914;51.008;4.300;2024-01-30T06:36:31;11.60;99.90
19538;DHT22;9914;51.008;4.300;2024-01-30T06:38:56;11.60;99.90
19538;DHT22;9914;51.008;4.300;2024-01-30T06:41:22;11.50;99.90
19538;DHT22;9914;51.008;4.300;2024-01-30T06:43:48;11.70;99.90
19538;DHT22;9914;51.008;4.300;2024-01-30T06:46:13;11.70;99.90
19538;DHT22;9914;51.008;4.300;2024-01-30T06:48:39;11.80;99.90
19538;DHT22;9914;51.008;4.300;2024-01-30T06:51:06;11.80;99.90
19538;DHT22;9914;51.008;4.300;2024-01-30T06:53:31;11.80;99.90
19538;DHT22;9914;51.008;4.300;2024-01-30T06:55:57;11.90;99.90
19538;DHT22;9914;51.008;4.300;2024-01-30T06:58:23;11.90;99.90
19538;DHT22;9914;51.008;4.300;2024-01-30T07:00:48;11.80;99.90
19538;DHT22;9914;51.008;4.300;2024-01-30T07:03:14;11.80;99.90
19538;DHT22;9914;51.008;4.300;2024-01-30T07:05:40;11.80;99.90
19538;DHT22;9914;51.008;4.300;2024-01-30T07:08:05;11.90;99.90
19538;DHT22;9914;51.008;4.300;2024-01-30T07:10:31;12.00;99.90
19538;DHT22;9914;51.008;4.300;2024-01-30T07:12:57;12.00;99.90
19538;DHT22;9914;51.008;4.300;2024-01-30T07:15:22;12.10;99.90
19538;DHT22;9914;51.008;4.300;2024-01-30T07:17:48;12.10;99.90
19538;DHT22;9914;51.008;4.300;2024-01-30T07:20:14;12.10;99.90
19538;DHT22;9914;51.008;4.300;2024-01-30T07:22:40;12.20;99.90
19538;DHT22;9914;51.008;4.300;2024-01-30T07:25:06;12.20;99.90
19538;DHT22;9914;51.008;4.300;2024-01-30T07:27:32;12.20;99.90
19538;DHT22;9914;51.008;4.300;2024-01-30T07:29:58;12.20;99.90
19538;DHT22;9914;51.008;4.300;2024-01-30T07:32:23;12.20;99.90
19538;DHT22;9914;51.008;4.300;2024-01-30T07:34:49;12.20;99.90
19538;DHT22;9914;51.008;4.300;2024-01-30T07:37:15;12.10;99.90
19538;DHT22;9914;51.008;4.300;2024-01-30T07:39:41;12.20;99.90
19538;DHT22;9914;51.008;4.300;2024-01-30T07:42:08;12.10;99.90
19538;DHT22;9914;51.008;4.300;2024-01-30T07:44:34;12.20;99.90
19538;DHT22;9914;51.008;4.300;2024-01-30T07:46:59;12.20;99.90
19538;DHT22;9914;51.008;4.300;2024-01-30T07:49:25;12.10;99.90
19538;DHT22;9914;51.008;4.300;2024-01-30T07:51:51;12.10;99.90
19538;DHT22;9914;51.008;4.300;2024-01-30T07:54:16;12.20;99.90
19538;DHT22;9914;51.008;4.300;2024-01-30T07:56:42;12.20;99.90
19538;DHT22;9914;51.008;4.300;2024-01-30T07:59:11;12.30;99.90
19538;DHT22;9914;51.008;4.300;2024-01-30T08:01:37;12.30;99.90
19538;DHT22;9914;51.008;4.300;2024-01-30T08:04:03;12.30;99.90
19538;DHT22;9914;51.008;4.300;2024-01-30T08:06:29;12.30;99.90
19538;DHT22;9914;51.008;4.300;2024-01-30T08:08:54;12.30;99.90
19538;DHT22;9914;51.008;4.300;2024-01-30T08:11:20;12.30;99.90
19538;DHT22;9914;51.008;4.300;2024-01-30T08:13:52;12.40;99.90
19538;DHT22;9914;51.008;4.300;2024-01-30T08:16:17;12.50;99.90
19538;DHT22;9914;51.008;4.300;2024-01-30T08:18:43;12.40;99.90
19538;DHT22;9914;51.008;4.300;2024-01-30T08:21:09;12.40;99.90
19538;DHT22;9914;51.008;4.300;2024-01-30T08:23:35;12.40;99.90
19538;DHT22;9914;51.008;4.300;2024-01-30T08:26:01;12.40;99.90
19538;DHT22;9914;51.008;4.300;2024-01-30T08:28:26;12.40;99.90
19538;DHT22;9914;51.008;4.300;2024-01-30T08:30:52;12.50;99.90
19538;DHT22;9914;51.008;4.300;2024-01-30T08:33:18;12.60;99.90
19538;DHT22;9914;51.008;4.300;2024-01-30T08:35:43;12.60;99.90
19538;DHT22;9914;51.008;4.300;2024-01-30T08:38:09;12.70;99.90
19538;DHT22;9914;51.008;4.300;2024-01-30T08:40:35;12.70;99.90
19538;DHT22;9914;51.008;4.300;2024-01-30T08:43:00;12.70;99.90
19538;DHT22;9914;51.008;4.300;2024-01-30T08:45:26;12.70;99.90
19538;DHT22;9914;51.008;4.300;2024-01-30T08:47:53;12.70;99.90
19538;DHT22;9914;51.008;4.300;2024-01-30T08:50:18;12.70;99.90
19538;DHT22;9914;51.008;4.300;2024-01-30T08:52:44;12.80;99.90
19538;DHT22;9914;51.008;4.300;2024-01-30T08:55:10;12.80;99.90
19538;DHT22;9914;51.008;4.300;2024-01-30T08:57:36;12.70;99.90
19538;DHT22;9914;51.008;4.300;2024-01-30T09:00:01;12.70;99.90
19538;DHT22;9914;51.008;4.300;2024-01-30T09:02:32;12.80;99.90
19538;DHT22;9914;51.008;4.300;2024-01-30T09:04:57;12.70;99.90
19538;DHT22;9914;51.008;4.300;2024-01-30T09:07:24;12.70;99.90
19538;DHT22;9914;51.008;4.300;2024-01-30T09:09:49;12.70;99.90
19538;DHT22;9914;51.008;4.300;2024-01-30T09:12:16;12.70;99.90
19538;DHT22;9914;51.008;4.300;2024-01-30T09:14:42;12.70;99.90
19538;DHT22;9914;51.008;4.300;2024-01-30T09:17:08;12.70;99.90
19538;DHT22;9914;51.008;4.300;2024-01-30T09:19:33;12.70;99.90
19538;DHT22;9914;51.008;4.300;2024-01-30T09:21:59;12.80;99.90
19538;DHT22;9914;51.008;4.300;2024-01-30T09:24:26;12.80;99.90
19538;DHT22;9914;51.008;4.300;2024-01-30T09:26:52;12.80;99.90
19538;DHT22;9914;51.008;4.300;2024-01-30T09:29:17;12.70;99.90
19538;DHT22;9914;51.008;4.300;2024-01-30T09:31:46;12.70;99.90
19538;DHT22;9914;51.008;4.300;2024-01-30T09:34:13;12.70;99.90
19538;DHT22;9914;51.008;4.300;2024-01-30T09:36:39;12.70;99.90
19538;DHT22;9914;51.008;4.300;2024-01-30T09:39:05;12.70;99.90
19538;DHT22;9914;51.008;4.300;2024-01-30T09:41:32;12.70;99.90
19538;DHT22;9914;51.008;4.300;2024-01-30T09:43:59;12.70;99.90
19538;DHT22;9914;51.008;4.300;2024-01-30T09:46:27;12.70;99.90
19538;DHT22;9914;51.008;4.300;2024-01-30T09:48:55;12.80;99.90
19538;DHT22;9914;51.008;4.300;2024-01-30T09:51:22;12.90;99.90
19538;DHT22;9914;51.008;4.300;2024-01-30T09:53:48;13.10;99.90
19538;DHT22;9914;51.008;4.300;2024-01-30T09:56:14;13.10;99.90
19538;DHT22;9914;51.008;4.300;2024-01-30T09:58:40;13.20;99.90
19538;DHT22;9914;51.008;4.300;2024-01-30T10:01:07;13.30;99.90
19538;DHT22;9914;51.008;4.300;2024-01-30T10:03:33;13.40;99.90
19538;DHT22;9914;51.008;4.300;2024-01-30T10:05:58;13.40;99.90
19538;DHT22;9914;51.008;4.300;2024-01-30T10:08:26;13.40;99.90
19538;DHT22;9914;51.008;4.300;2024-01-30T10:10:52;13.50;99.90
19538;DHT22;9914;51.008;4.300;2024-01-30T10:13:18;13.50;99.90
19538;DHT22;9914;51.008;4.300;2024-01-30T10:15:44;13.30;99.90
19538;DHT22;9914;51.008;4.300;2024-01-30T10:18:10;13.30;99.90
19538;DHT22;9914;51.008;4.300;2024-01-30T10:20:37;13.30;99.90
19538;DHT22;9914;51.008;4.300;2024-01-30T10:23:03;13.40;99.90
19538;DHT22;9914;51.008;4.300;2024-01-30T10:25:31;13.30;99.90
19538;DHT22;9914;51.008;4.300;2024-01-30T10:27:58;13.40;99.90
19538;DHT22;9914;51.008;4.300;2024-01-30T10:30:24;13.20;99.90
19538;DHT22;9914;51.008;4.300;2024-01-30T10:32:50;13.20;99.90
19538;DHT22;9914;51.008;4.300;2024-01-30T10:35:16;13.20;99.90
19538;DHT22;9914;51.008;4.300;2024-01-30T10:37:47;13.10;99.90
19538;DHT22;9914;51.008;4.300;2024-01-30T10:40:14;13.10;99.90
19538;DHT22;9914;51.008;4.300;2024-01-30T10:42:45;13.00;99.90
19538;DHT22;9914;51.008;4.300;2024-01-30T10:45:12;13.10;99.90
19538;DHT22;9914;51.008;4.300;2024-01-30T10:47:40;13.10;99.90
19538;DHT22;9914;51.008;4.300;2024-01-30T10:50:08;13.20;99.90
19538;DHT22;9914;51.008;4.300;2024-01-30T10:52:34;13.20;99.90
19538;DHT22;9914;51.008;4.300;2024-01-30T10:55:00;13.20;99.90
19538;DHT22;9914;51.008;4.300;2024-01-30T10:57:27;12.90;99.90
19538;DHT22;9914;51.008;4.300;2024-01-30T11:00:04;12.60;99.90
19538;DHT22;9914;51.008;4.300;2024-01-30T11:02:38;12.50;99.90
19538;DHT22;9914;51.008;4.300;2024-01-30T11:05:05;12.50;99.90
19538;DHT22;9914;51.008;4.300;2024-01-30T11:07:31;12.50;99.90
19538;DHT22;9914;51.008;4.300;2024-01-30T11:10:03;12.40;99.90
19538;DHT22;9914;51.008;4.300;2024-01-30T11:12:37;12.30;99.90
19538;DHT22;9914;51.008;4.300;2024-01-30T11:15:10;12.40;99.90
19538;DHT22;9914;51.008;4.300;2024-01-30T11:17:43;12.60;99.90
19538;DHT22;9914;51.008;4.300;2024-01-30T11:22:47;12.70;99.90
19538;DHT22;9914;51.008;4.300;2024-01-30T11:25:17;12.60;99.90
19538;DHT22;9914;51.008;4.300;2024-01-30T11:27:44;12.50;99.90
19538;DHT22;9914;51.008;4.300;2024-01-30T11:30:10;12.40;99.90
19538;DHT22;9914;51.008;4.300;2024-01-30T11:32:36;12.50;99.90
19538;DHT22;9914;51.008;4.300;2024-01-30T11:35:05;12.50;99.90
19538;DHT22;9914;51.008;4.300;2024-01-30T11:37:37;12.40;99.90
19538;DHT22;9914;51.008;4.300;2024-01-30T11:40:04;12.40;99.90
19538;DHT22;9914;51.008;4.300;2024-01-30T11:42:30;12.30;99.90
19538;DHT22;9914;51.008;4.300;2024-01-30T11:44:56;12.30;99.90
19538;DHT22;9914;51.008;4.300;2024-01-30T11:47:22;12.30;99.90
19538;DHT22;9914;51.008;4.300;2024-01-30T11:49:48;12.40;99.90
19538;DHT22;9914;51.008;4.300;2024-01-30T11:52:14;12.40;99.90
19538;DHT22;9914;51.008;4.300;2024-01-30T11:54:40;12.50;99.90
19538;DHT22;9914;51.008;4.300;2024-01-30T11:57:06;12.60;99.90
19538;DHT22;9914;51.008;4.300;2024-01-30T11:59:31;12.70;99.90
19538;DHT22;9914;51.008;4.300;2024-01-30T12:01:57;12.80;99.90
19538;DHT22;9914;51.008;4.300;2024-01-30T12:04:22;12.90;99.90
19538;DHT22;9914;51.008;4.300;2024-01-30T12:06:51;13.00;99.90
19538;DHT22;9914;51.008;4.300;2024-01-30T12:09:17;13.30;99.90
19538;DHT22;9914;51.008;4.300;2024-01-30T12:11:49;13.40;99.90
19538;DHT22;9914;51.008;4.300;2024-01-30T12:14:18;13.60;99.90
19538;DHT22;9914;51.008;4.300;2024-01-30T12:16:48;13.70;99.90
19538;DHT22;9914;51.008;4.300;2024-01-30T12:19:23;13.60;99.90
19538;DHT22;9914;51.008;4.300;2024-01-30T12:21:54;13.50;99.90
19538;DHT22;9914;51.008;4.300;2024-01-30T12:24:21;13.30;99.90
19538;DHT22;9914;51.008;4.300;2024-01-30T12:26:46;13.20;99.90
19538;DHT22;9914;51.008;4.300;2024-01-30T12:29:14;13.10;99.90
19538;DHT22;9914;51.008;4.300;2024-01-30T12:31:42;13.10;99.90
19538;DHT22;9914;51.008;4.300;2024-01-30T12:34:08;13.00;99.90
19538;DHT22;9914;51.008;4.300;2024-01-30T12:36:34;13.00;99.90
19538;DHT22;9914;51.008;4.300;2024-01-30T12:39:00;13.20;99.90
19538;DHT22;9914;51.008;4.300;2024-01-30T12:41:26;13.30;99.90
19538;DHT22;9914;51.008;4.300;2024-01-30T12:43:57;13.10;99.90
19538;DHT22;9914;51.008;4.300;2024-01-30T12:46:27;12.90;99.90
19538;DHT22;9914;51.008;4.300;2024-01-30T12:48:53;12.70;99.90
19538;DHT22;9914;51.008;4.300;2024-01-30T12:51:19;12.50;99.90
19538;DHT22;9914;51.008;4.300;2024-01-30T12:53:45;12.40;99.90
19538;DHT22;9914;51.008;4.300;2024-01-30T12:56:13;12.30;99.90
19538;DHT22;9914;51.008;4.300;2024-01-30T12:58:39;12.30;99.90
19538;DHT22;9914;51.008;4.300;2024-01-30T13:01:05;12.30;99.90
19538;DHT22;9914;51.008;4.300;2024-01-30T13:03:31;12.30;99.90
19538;DHT22;9914;51.008;4.300;2024-01-30T13:05:57;12.40;99.90
19538;DHT22;9914;51.008;4.300;2024-01-30T13:08:22;12.30;99.90
19538;DHT22;9914;51.008;4.300;2024-01-30T13:10:48;12.20;99.90
19538;DHT22;9914;51.008;4.300;2024-01-30T13:13:14;12.10;99.90
19538;DHT22;9914;51.008;4.300;2024-01-30T13:15:39;12.20;99.90
19538;DHT22;9914;51.008;4.300;2024-01-30T13:18:06;12.00;99.90
19538;DHT22;9914;51.008;4.300;2024-01-30T13:20:32;11.90;99.90
19538;DHT22;9914;51.008;4.300;2024-01-30T13:22:57;11.80;99.90
19538;DHT22;9914;51.008;4.300;2024-01-30T13:25:23;11.90;99.90
19538;DHT22;9914;51.008;4.300;2024-01-30T13:27:51;11.90;99.90
19538;DHT22;9914;51.008;4.300;2024-01-30T13:30:17;11.90;99.90
19538;DHT22;9914;51.008;4.300;2024-01-30T13:32:43;11.70;99.90
19538;DHT22;9914;51.008;4.300;2024-01-30T13:35:10;11.60;99.90
19538;DHT22;9914;51.008;4.300;2024-01-30T13:37:35;11.50;99.90
19538;DHT22;9914;51.008;4.300;2024-01-30T13:40:05;11.40;99.90
19538;DHT22;9914;51.008;4.300;2024-01-30T13:42:38;11.50;99.90
19538;DHT22;9914;51.008;4.300;2024-01-30T13:45:04;11.50;99.90
19538;DHT22;9914;51.008;4.300;2024-01-30T13:47:30;11.50;99.90
19538;DHT22;9914;51.008;4.300;2024-01-30T13:49:56;11.50;99.90
19538;DHT22;9914;51.008;4.300;2024-01-30T13:52:21;11.60;99.90
19538;DHT22;9914;51.008;4.300;2024-01-30T13:54:47;11.50;99.90
19538;DHT22;9914;51.008;4.300;2024-01-30T13:57:13;11.40;99.90
19538;DHT22;9914;51.008;4.300;2024-01-30T13:59:38;11.40;99.90
19538;DHT22;9914;51.008;4.300;2024-01-30T14:02:04;11.50;99.90
19538;DHT22;9914;51.008;4.300;2024-01-30T14:04:31;11.50;99.90
19538;DHT22;9914;51.008;4.300;2024-01-30T14:06:56;11.50;99.90
19538;DHT22;9914;51.008;4.300;2024-01-30T14:09:22;11.60;99.90
19538;DHT22;9914;51.008;4.300;2024-01-30T14:11:48;11.70;99.90
19538;DHT22;9914;51.008;4.300;2024-01-30T14:14:13;11.70;99.90
19538;DHT22;9914;51.008;4.300;2024-01-30T14:16:39;11.50;99.90
19538;DHT22;9914;51.008;4.300;2024-01-30T14:19:05;11.40;99.90
19538;DHT22;9914;51.008;4.300;2024-01-30T14:21:30;11.40;99.90
19538;DHT22;9914;51.008;4.300;2024-01-30T14:23:56;11.30;99.90
19538;DHT22;9914;51.008;4.300;2024-01-30T14:26:22;11.30;99.90
19538;DHT22;9914;51.008;4.300;2024-01-30T14:28:47;11.10;99.90
19538;DHT22;9914;51.008;4.300;2024-01-30T14:31:13;11.10;99.90
19538;DHT22;9914;51.008;4.300;2024-01-30T14:33:39;11.20;99.90
19538;DHT22;9914;51.008;4.300;2024-01-30T14:36:05;11.30;99.90
19538;DHT22;9914;51.008;4.300;2024-01-30T14:38:30;11.30;99.90
19538;DHT22;9914;51.008;4.300;2024-01-30T14:40:56;11.30;99.90
19538;DHT22;9914;51.008;4.300;2024-01-30T14:43:22;11.30;99.90
19538;DHT22;9914;51.008;4.300;2024-01-30T14:45:48;11.30;99.90
19538;DHT22;9914;51.008;4.300;2024-01-30T14:48:15;11.10;99.90
19538;DHT22;9914;51.008;4.300;2024-01-30T14:50:41;11.10;99.90
19538;DHT22;9914;51.008;4.300;2024-01-30T14:53:06;11.10;99.90
19538;DHT22;9914;51.008;4.300;2024-01-30T14:55:32;11.10;99.90
19538;DHT22;9914;51.008;4.300;2024-01-30T14:57:58;11.10;99.90
19538;DHT22;9914;51.008;4.300;2024-01-30T15:00:25;11.00;99.90
19538;DHT22;9914;51.008;4.300;2024-01-30T15:02:50;11.10;99.90
19538;DHT22;9914;51.008;4.300;2024-01-30T15:05:16;11.00;99.90
19538;DHT22;9914;51.008;4.300;2024-01-30T15:07:42;11.00;99.90
19538;DHT22;9914;51.008;4.300;2024-01-30T15:10:10;10.90;99.90
19538;DHT22;9914;51.008;4.300;2024-01-30T15:12:37;11.00;99.90
19538;DHT22;9914;51.008;4.300;2024-01-30T15:15:03;11.10;99.90
19538;DHT22;9914;51.008;4.300;2024-01-30T15:17:29;11.10;99.90
19538;DHT22;9914;51.008;4.300;2024-01-30T15:19:54;11.20;99.90
19538;DHT22;9914;51.008;4.300;2024-01-30T15:22:20;11.20;99.90
19538;DHT22;9914;51.008;4.300;2024-01-30T15:24:46;11.40;99.90
19538;DHT22;9914;51.008;4.300;2024-01-30T15:27:11;11.30;99.90
19538;DHT22;9914;51.008;4.300;2024-01-30T15:29:37;11.20;99.90
19538;DHT22;9914;51.008;4.300;2024-01-30T15:32:03;11.10;99.90
19538;DHT22;9914;51.008;4.300;2024-01-30T15:34:30;11.10;99.90
19538;DHT22;9914;51.008;4.300;2024-01-30T15:36:56;10.90;99.90
19538;DHT22;9914;51.008;4.300;2024-01-30T15:39:21;10.90;99.90
19538;DHT22;9914;51.008;4.300;2024-01-30T15:41:47;10.90;99.90